sensor_id;sensor_type;location;lat;lon;timestamp;pressure;altitude;pressure_sealevel;temperature;humidity
12676;BME280;63820;65.654;21.944;2023-06-14T00:01:10;101930.22;;;6.38;100.00
12676;BME280;63820;65.654;21.944;2023-06-14T00:03:57;101933.69;;;6.30;100.00
12676;BME280;63820;65.654;21.944;2023-06-14T00:06:43;101938.84;;;6.25;100.00
12676;BME280;63820;65.654;21.944;2023-06-14T00:09:31;101929.41;;;6.21;100.00
12676;BME280;63820;65.654;21.944;2023-06-14T00:12:15;101931.16;;;6.22;100.00
12676;BME280;63820;65.654;21.944;2023-06-14T00:14:59;101932.00;;;6.21;100.00
12676;BME280;63820;65.654;21.944;2023-06-14T00:17:45;101932.88;;;6.15;100.00
12676;BME280;63820;65.654;21.944;2023-06-14T00:20:32;101931.16;;;6.07;100.00
12676;BME280;63820;65.654;21.944;2023-06-14T00:23:18;101932.03;;;6.00;100.00
12676;BME280;63820;65.654;21.944;2023-06-14T00:26:02;101935.47;;;5.93;100.00
12676;BME280;63820;65.654;21.944;2023-06-14T00:28:46;101931.16;;;5.84;100.00
12676;BME280;63820;65.654;21.944;2023-06-14T00:31:30;101933.72;;;5.79;100.00
12676;BME280;63820;65.654;21.944;2023-06-14T00:34:14;101929.41;;;5.72;100.00
12676;BME280;63820;65.654;21.944;2023-06-14T00:36:59;101921.66;;;5.66;100.00
12676;BME280;63820;65.654;21.944;2023-06-14T00:39:43;101919.09;;;5.66;100.00
12676;BME280;63820;65.654;21.944;2023-06-14T00:42:28;101920.81;;;5.67;100.00
12676;BME280;63820;65.654;21.944;2023-06-14T00:45:12;101933.72;;;5.73;100.00
12676;BME280;63820;65.654;21.944;2023-06-14T00:47:57;101921.66;;;5.75;100.00
12676;BME280;63820;65.654;21.944;2023-06-14T00:50:41;101928.56;;;5.70;100.00
12676;BME280;63820;65.654;21.944;2023-06-14T00:53:28;101925.97;;;5.61;100.00
12676;BME280;63820;65.654;21.944;2023-06-14T00:56:14;101916.50;;;5.51;100.00
12676;BME280;63820;65.654;21.944;2023-06-14T00:58:58;101913.91;;;5.42;100.00
12676;BME280;63820;65.654;21.944;2023-06-14T01:01:43;101926.81;;;5.36;100.00
12676;BME280;63820;65.654;21.944;2023-06-14T01:04:27;101923.34;;;5.34;100.00
12676;BME280;63820;65.654;21.944;2023-06-14T01:13:07;101941.44;;;5.37;100.00
12676;BME280;63820;65.654;21.944;2023-06-14T01:15:53;101944.00;;;5.34;100.00
12676;BME280;63820;65.654;21.944;2023-06-14T01:18:38;101931.94;;;5.33;100.00
12676;BME280;63820;65.654;21.944;2023-06-14T01:21:24;101936.25;;;5.35;100.00
12676;BME280;63820;65.654;21.944;2023-06-14T01:24:09;101947.44;;;5.36;100.00
12676;BME280;63820;65.654;21.944;2023-06-14T01:26:55;101945.72;;;5.38;100.00
12676;BME280;63820;65.654;21.944;2023-06-14T01:29:40;101944.88;;;5.40;100.00
12676;BME280;63820;65.654;21.944;2023-06-14T01:32:29;101944.88;;;5.40;100.00
12676;BME280;63820;65.654;21.944;2023-06-14T01:35:14;101940.56;;;5.44;100.00
12676;BME280;63820;65.654;21.944;2023-06-14T01:37:58;101938.00;;;5.47;100.00
12676;BME280;63820;65.654;21.944;2023-06-14T01:40:44;101944.03;;;5.49;100.00
12676;BME280;63820;65.654;21.944;2023-06-14T01:43:31;101942.31;;;5.54;100.00
12676;BME280;63820;65.654;21.944;2023-06-14T01:46:15;101936.31;;;5.64;100.00
12676;BME280;63820;65.654;21.944;2023-06-14T01:48:59;101938.88;;;5.73;100.00
12676;BME280;63820;65.654;21.944;2023-06-14T01:51:44;101940.63;;;5.80;100.00
12676;BME280;63820;65.654;21.944;2023-06-14T01:54:29;101932.91;;;5.91;100.00
12676;BME280;63820;65.654;21.944;2023-06-14T01:57:13;101930.31;;;6.00;100.00
12676;BME280;63820;65.654;21.944;2023-06-14T01:59:57;101927.72;;;6.06;100.00
12676;BME280;63820;65.654;21.944;2023-06-14T02:02:41;101926.00;;;6.11;100.00
12676;BME280;63820;65.654;21.944;2023-06-14T02:05:25;101929.38;;;6.24;100.00
12676;BME280;63820;65.654;21.944;2023-06-14T02:08:10;101919.03;;;6.30;100.00
12676;BME280;63820;65.654;21.944;2023-06-14T02:10:54;101925.91;;;6.40;100.00
12676;BME280;63820;65.654;21.944;2023-06-14T02:13:38;101929.31;;;6.48;100.00
12676;BME280;63820;65.654;21.944;2023-06-14T02:16:22;101926.72;;;6.57;100.00
12676;BME280;63820;65.654;21.944;2023-06-14T02:19:06;101923.25;;;6.65;100.00
12676;BME280;63820;65.654;21.944;2023-06-14T02:21:50;101916.31;;;6.73;100.00
12676;BME280;63820;65.654;21.944;2023-06-14T02:24:34;101930.06;;;6.81;100.00
12676;BME280;63820;65.654;21.944;2023-06-14T02:27:19;101932.63;;;6.90;100.00
12676;BME280;63820;65.654;21.944;2023-06-14T02:30:03;101930.88;;;6.95;100.00
12676;BME280;63820;65.654;21.944;2023-06-14T02:32:47;101926.53;;;7.00;100.00
12676;BME280;63820;65.654;21.944;2023-06-14T02:35:32;101921.34;;;7.05;100.00
12676;BME280;63820;65.654;21.944;2023-06-14T02:38:16;101924.75;;;7.11;100.00
12676;BME280;63820;65.654;21.944;2023-06-14T02:41:00;101929.03;;;7.20;100.00
12676;BME280;63820;65.654;21.944;2023-06-14T02:43:45;101928.06;;;7.30;100.00
12676;BME280;63820;65.654;21.944;2023-06-14T02:46:29;101930.59;;;7.39;100.00
12676;BME280;63820;65.654;21.944;2023-06-14T02:49:13;101920.16;;;7.50;100.00
12676;BME280;63820;65.654;21.944;2023-06-14T02:51:58;101922.69;;;7.58;100.00
12676;BME280;63820;65.654;21.944;2023-06-14T02:54:42;101922.63;;;7.65;100.00
12676;BME280;63820;65.654;21.944;2023-06-14T02:57:26;101926.00;;;7.76;100.00
12676;BME280;63820;65.654;21.944;2023-06-14T03:00:11;101931.03;;;7.95;100.00
12676;BME280;63820;65.654;21.944;2023-06-14T03:02:57;101923.97;;;8.12;100.00
12676;BME280;63820;65.654;21.944;2023-06-14T03:05:45;101926.41;;;8.26;100.00
12676;BME280;63820;65.654;21.944;2023-06-14T03:08:31;101921.97;;;8.38;100.00
12676;BME280;63820;65.654;21.944;2023-06-14T03:11:22;101919.28;;;8.47;100.00
12676;BME280;63820;65.654;21.944;2023-06-14T03:14:06;101923.47;;;8.59;100.00
12676;BME280;63820;65.654;21.944;2023-06-14T03:16:52;101931.97;;;8.70;100.00
12676;BME280;63820;65.654;21.944;2023-06-14T03:19:40;101919.78;;;8.77;100.00
12676;BME280;63820;65.654;21.944;2023-06-14T03:22:25;101924.88;;;8.86;100.00
12676;BME280;63820;65.654;21.944;2023-06-14T03:25:09;101916.97;;;8.94;100.00
12676;BME280;63820;65.654;21.944;2023-06-14T03:27:53;101922.06;;;9.01;100.00
12676;BME280;63820;65.654;21.944;2023-06-14T03:30:38;101935.72;;;9.17;100.00
12676;BME280;63820;65.654;21.944;2023-06-14T03:33:22;101926.78;;;9.35;100.00
12676;BME280;63820;65.654;21.944;2023-06-14T03:36:06;101921.22;;;9.58;100.00
12676;BME280;63820;65.654;21.944;2023-06-14T03:38:51;101924.84;;;10.00;100.00
12676;BME280;63820;65.654;21.944;2023-06-14T03:41:35;101933.06;;;10.71;100.00
12676;BME280;63820;65.654;21.944;2023-06-14T03:44:19;101932.66;;;11.66;100.00
12676;BME280;63820;65.654;21.944;2023-06-14T03:47:03;101937.00;;;12.65;100.00
12676;BME280;63820;65.654;21.944;2023-06-14T03:49:47;101924.94;;;14.00;100.00
12676;BME280;63820;65.654;21.944;2023-06-14T03:52:31;101938.88;;;15.21;99.30
12676;BME280;63820;65.654;21.944;2023-06-14T03:55:16;101933.63;;;16.07;86.72
12676;BME280;63820;65.654;21.944;2023-06-14T03:58:01;101938.97;;;16.83;80.02
12676;BME280;63820;65.654;21.944;2023-06-14T04:00:46;101939.75;;;16.85;75.95
12676;BME280;63820;65.654;21.944;2023-06-14T04:03:31;101938.19;;;17.00;71.92
12676;BME280;63820;65.654;21.944;2023-06-14T04:06:15;101940.44;;;17.45;78.64
12676;BME280;63820;65.654;21.944;2023-06-14T04:09:03;101940.03;;;17.36;78.38
12676;BME280;63820;65.654;21.944;2023-06-14T04:11:47;101928.03;;;17.66;76.54
12676;BME280;63820;65.654;21.944;2023-06-14T04:14:31;101929.81;;;17.83;78.96
12676;BME280;63820;65.654;21.944;2023-06-14T04:17:17;101931.03;;;18.27;73.36
12676;BME280;63820;65.654;21.944;2023-06-14T04:20:02;101937.63;;;18.69;71.92
12676;BME280;63820;65.654;21.944;2023-06-14T04:22:49;101924.44;;;19.01;68.91
12676;BME280;63820;65.654;21.944;2023-06-14T04:25:34;101923.50;;;19.17;68.05
12676;BME280;63820;65.654;21.944;2023-06-14T04:28:18;101916.69;;;20.05;64.67
12676;BME280;63820;65.654;21.944;2023-06-14T04:31:03;101918.56;;;19.43;67.34
12676;BME280;63820;65.654;21.944;2023-06-14T04:33:48;101911.94;;;19.51;65.65
12676;BME280;63820;65.654;21.944;2023-06-14T04:36:34;101916.91;;;19.86;64.67
12676;BME280;63820;65.654;21.944;2023-06-14T04:39:21;101920.50;;;20.29;63.00
12676;BME280;63820;65.654;21.944;2023-06-14T04:42:06;101910.19;;;20.24;66.94
12676;BME280;63820;65.654;21.944;2023-06-14T04:44:51;101911.28;;;19.92;63.12
12676;BME280;63820;65.654;21.944;2023-06-14T04:47:39;101913.63;;;19.21;62.98
12676;BME280;63820;65.654;21.944;2023-06-14T04:50:24;101915.25;;;18.43;66.42
12676;BME280;63820;65.654;21.944;2023-06-14T04:53:08;101911.31;;;18.35;65.87
12676;BME280;63820;65.654;21.944;2023-06-14T04:55:52;101902.00;;;17.94;67.34
12676;BME280;63820;65.654;21.944;2023-06-14T04:58:36;101899.47;;;17.40;73.41
12676;BME280;63820;65.654;21.944;2023-06-14T05:01:22;101899.81;;;17.15;69.92
12676;BME280;63820;65.654;21.944;2023-06-14T05:04:07;101892.00;;;16.94;71.45
12676;BME280;63820;65.654;21.944;2023-06-14T05:06:51;101894.00;;;16.89;75.32
12676;BME280;63820;65.654;21.944;2023-06-14T05:09:37;101897.97;;;16.98;73.71
12676;BME280;63820;65.654;21.944;2023-06-14T05:12:21;101899.66;;;17.18;69.02
12676;BME280;63820;65.654;21.944;2023-06-14T05:15:07;101899.84;;;17.32;65.09
12676;BME280;63820;65.654;21.944;2023-06-14T05:17:53;101891.16;;;17.83;65.97
12676;BME280;63820;65.654;21.944;2023-06-14T05:20:39;101902.16;;;18.42;62.39
12676;BME280;63820;65.654;21.944;2023-06-14T05:23:24;101895.66;;;19.43;60.70
12676;BME280;63820;65.654;21.944;2023-06-14T05:26:07;101903.19;;;20.09;55.10
12676;BME280;63820;65.654;21.944;2023-06-14T05:28:51;101903.94;;;20.82;51.19
12676;BME280;63820;65.654;21.944;2023-06-14T05:31:37;101900.50;;;21.63;46.45
12676;BME280;63820;65.654;21.944;2023-06-14T05:34:21;101913.84;;;22.39;45.80
12676;BME280;63820;65.654;21.944;2023-06-14T05:37:05;101905.50;;;23.66;42.67
12676;BME280;63820;65.654;21.944;2023-06-14T05:39:49;101911.59;;;23.90;40.76
12676;BME280;63820;65.654;21.944;2023-06-14T05:42:33;101912.84;;;24.98;40.88
12676;BME280;63820;65.654;21.944;2023-06-14T05:45:17;101905.84;;;25.61;37.92
12676;BME280;63820;65.654;21.944;2023-06-14T05:48:01;101913.00;;;26.44;37.25
12676;BME280;63820;65.654;21.944;2023-06-14T05:50:45;101912.59;;;26.88;37.01
12676;BME280;63820;65.654;21.944;2023-06-14T05:53:29;101916.72;;;27.21;35.04
12676;BME280;63820;65.654;21.944;2023-06-14T05:56:14;101908.59;;;27.71;32.89
12676;BME280;63820;65.654;21.944;2023-06-14T05:58:59;101922.38;;;27.38;28.76
12676;BME280;63820;65.654;21.944;2023-06-14T06:01:43;101911.44;;;27.60;32.47
12676;BME280;63820;65.654;21.944;2023-06-14T06:04:27;101913.31;;;28.53;29.75
12676;BME280;63820;65.654;21.944;2023-06-14T06:07:11;101907.88;;;28.35;29.79
12676;BME280;63820;65.654;21.944;2023-06-14T06:09:55;101906.19;;;29.52;27.88
12676;BME280;63820;65.654;21.944;2023-06-14T06:12:41;101904.34;;;29.35;27.51
12676;BME280;63820;65.654;21.944;2023-06-14T06:15:25;101909.50;;;29.46;28.25
12676;BME280;63820;65.654;21.944;2023-06-14T06:18:09;101904.13;;;29.46;26.18
12676;BME280;63820;65.654;21.944;2023-06-14T06:20:53;101901.88;;;29.77;26.08
12676;BME280;63820;65.654;21.944;2023-06-14T06:23:38;101898.00;;;29.53;26.35
12676;BME280;63820;65.654;21.944;2023-06-14T06:26:22;101900.28;;;29.66;26.16
12676;BME280;63820;65.654;21.944;2023-06-14T06:29:07;101903.66;;;29.68;25.57
12676;BME280;63820;65.654;21.944;2023-06-14T06:31:50;101900.53;;;29.55;26.41
12676;BME280;63820;65.654;21.944;2023-06-14T06:34:34;101901.25;;;30.77;25.99
12676;BME280;63820;65.654;21.944;2023-06-14T06:37:21;101902.03;;;31.28;25.60
12676;BME280;63820;65.654;21.944;2023-06-14T06:40:05;101908.78;;;30.65;27.28
12676;BME280;63820;65.654;21.944;2023-06-14T06:42:50;101904.59;;;31.70;25.39
12676;BME280;63820;65.654;21.944;2023-06-14T06:45:34;101890.28;;;31.61;28.04
12676;BME280;63820;65.654;21.944;2023-06-14T06:48:18;101895.16;;;31.74;25.73
12676;BME280;63820;65.654;21.944;2023-06-14T06:51:02;101903.06;;;31.35;25.35
12676;BME280;63820;65.654;21.944;2023-06-14T06:53:54;101900.53;;;31.90;25.38
12676;BME280;63820;65.654;21.944;2023-06-14T06:56:39;101902.06;;;31.76;25.27
12676;BME280;63820;65.654;21.944;2023-06-14T06:59:23;101902.22;;;32.46;24.39
12676;BME280;63820;65.654;21.944;2023-06-14T07:02:08;101903.69;;;32.10;26.04
12676;BME280;63820;65.654;21.944;2023-06-14T07:04:52;101915.31;;;32.58;24.25
12676;BME280;63820;65.654;21.944;2023-06-14T07:07:36;101919.13;;;32.79;24.46
12676;BME280;63820;65.654;21.944;2023-06-14T07:10:20;101906.66;;;32.78;23.68
12676;BME280;63820;65.654;21.944;2023-06-14T07:13:04;101914.41;;;32.34;25.72
12676;BME280;63820;65.654;21.944;2023-06-14T07:15:49;101909.75;;;33.44;24.51
12676;BME280;63820;65.654;21.944;2023-06-14T07:18:33;101912.66;;;32.89;23.42
12676;BME280;63820;65.654;21.944;2023-06-14T07:21:17;101905.00;;;32.22;23.52
12676;BME280;63820;65.654;21.944;2023-06-14T07:24:02;101910.19;;;33.33;24.55
12676;BME280;63820;65.654;21.944;2023-06-14T07:26:46;101911.69;;;34.25;23.49
12676;BME280;63820;65.654;21.944;2023-06-14T07:29:32;101912.16;;;34.29;23.16
12676;BME280;63820;65.654;21.944;2023-06-14T07:32:16;101915.19;;;34.85;22.73
12676;BME280;63820;65.654;21.944;2023-06-14T07:35:00;101917.56;;;34.14;20.54
12676;BME280;63820;65.654;21.944;2023-06-14T07:37:44;101914.00;;;33.99;21.50
12676;BME280;63820;65.654;21.944;2023-06-14T07:40:30;101916.09;;;34.77;22.33
12676;BME280;63820;65.654;21.944;2023-06-14T07:43:14;101921.06;;;34.73;23.29
12676;BME280;63820;65.654;21.944;2023-06-14T07:45:58;101920.53;;;34.34;22.59
12676;BME280;63820;65.654;21.944;2023-06-14T07:48:43;101922.91;;;35.24;22.08
12676;BME280;63820;65.654;21.944;2023-06-14T07:51:27;101915.81;;;35.44;22.26
12676;BME280;63820;65.654;21.944;2023-06-14T07:54:11;101918.13;;;35.04;20.52
12676;BME280;63820;65.654;21.944;2023-06-14T07:56:55;101915.47;;;36.38;21.34
12676;BME280;63820;65.654;21.944;2023-06-14T07:59:40;101918.41;;;34.29;22.06
12676;BME280;63820;65.654;21.944;2023-06-14T08:02:24;101920.72;;;34.62;22.29
12676;BME280;63820;65.654;21.944;2023-06-14T08:05:10;101921.84;;;34.53;23.33
12676;BME280;63820;65.654;21.944;2023-06-14T08:07:57;101924.28;;;34.98;21.42
12676;BME280;63820;65.654;21.944;2023-06-14T08:10:41;101918.72;;;36.26;21.46
12676;BME280;63820;65.654;21.944;2023-06-14T08:13:25;101922.34;;;35.78;20.41
12676;BME280;63820;65.654;21.944;2023-06-14T08:16:10;101923.50;;;35.90;19.56
12676;BME280;63820;65.654;21.944;2023-06-14T08:18:55;101922.63;;;34.97;21.66
12676;BME280;63820;65.654;21.944;2023-06-14T08:21:40;101922.63;;;34.97;21.39
12676;BME280;63820;65.654;21.944;2023-06-14T08:24:24;101926.00;;;35.42;21.28
12676;BME280;63820;65.654;21.944;2023-06-14T08:27:08;101921.72;;;36.03;20.21
12676;BME280;63820;65.654;21.944;2023-06-14T08:29:53;101925.75;;;36.14;20.28
12676;BME280;63820;65.654;21.944;2023-06-14T08:32:37;101924.34;;;36.25;21.40
12676;BME280;63820;65.654;21.944;2023-06-14T08:35:22;101917.34;;;36.91;21.90
12676;BME280;63820;65.654;21.944;2023-06-14T08:38:06;101923.19;;;36.88;20.40
12676;BME280;63820;65.654;21.944;2023-06-14T08:40:50;101917.22;;;36.65;21.21
12676;BME280;63820;65.654;21.944;2023-06-14T08:43:35;101911.97;;;36.16;20.63
12676;BME280;63820;65.654;21.944;2023-06-14T08:46:19;101917.06;;;36.73;19.95
12676;BME280;63820;65.654;21.944;2023-06-14T08:49:04;101913.03;;;36.56;20.15
12676;BME280;63820;65.654;21.944;2023-06-14T08:51:57;101904.00;;;36.96;17.90
12676;BME280;63820;65.654;21.944;2023-06-14T08:54:41;101903.41;;;36.12;19.07
12676;BME280;63820;65.654;21.944;2023-06-14T08:57:28;101899.59;;;36.00;20.60
12676;BME280;63820;65.654;21.944;2023-06-14T09:00:14;101895.81;;;34.52;20.17
12676;BME280;63820;65.654;21.944;2023-06-14T09:02:58;101897.59;;;35.59;19.91
12676;BME280;63820;65.654;21.944;2023-06-14T09:05:43;101893.31;;;35.99;20.17
12676;BME280;63820;65.654;21.944;2023-06-14T09:08:28;101891.81;;;35.69;21.09
12676;BME280;63820;65.654;21.944;2023-06-14T09:11:17;101888.81;;;36.13;20.03
12676;BME280;63820;65.654;21.944;2023-06-14T09:14:02;101890.94;;;36.72;19.29
12676;BME280;63820;65.654;21.944;2023-06-14T09:16:47;101887.69;;;36.01;18.69
12676;BME280;63820;65.654;21.944;2023-06-14T09:19:31;101892.47;;;36.88;19.47
12676;BME280;63820;65.654;21.944;2023-06-14T09:22:16;101888.44;;;36.23;18.49
12676;BME280;63820;65.654;21.944;2023-06-14T09:25:01;101891.31;;;37.50;18.08
12676;BME280;63820;65.654;21.944;2023-06-14T09:27:46;101885.28;;;37.41;18.65
12676;BME280;63820;65.654;21.944;2023-06-14T09:30:31;101883.25;;;38.27;18.17
12676;BME280;63820;65.654;21.944;2023-06-14T09:33:18;101883.69;;;38.69;17.97
12676;BME280;63820;65.654;21.944;2023-06-14T09:36:03;101881.09;;;37.39;19.19
12676;BME280;63820;65.654;21.944;2023-06-14T09:38:56;101873.53;;;37.21;18.17
12676;BME280;63820;65.654;21.944;2023-06-14T09:41:41;101874.47;;;38.25;17.69
12676;BME280;63820;65.654;21.944;2023-06-14T09:44:26;101887.16;;;39.21;16.45
12676;BME280;63820;65.654;21.944;2023-06-14T09:47:15;101882.88;;;39.07;16.95
12676;BME280;63820;65.654;21.944;2023-06-14T09:49:59;101868.41;;;38.23;17.97
12676;BME280;63820;65.654;21.944;2023-06-14T09:52:44;101868.50;;;38.86;16.63
12676;BME280;63820;65.654;21.944;2023-06-14T09:55:31;101861.53;;;39.29;17.80
12676;BME280;63820;65.654;21.944;2023-06-14T09:58:20;101870.69;;;39.09;18.12
12676;BME280;63820;65.654;21.944;2023-06-14T10:01:05;101868.94;;;38.83;16.65
12676;BME280;63820;65.654;21.944;2023-06-14T10:06:45;101861.34;;;38.92;18.75
12676;BME280;63820;65.654;21.944;2023-06-14T10:09:30;101866.47;;;39.13;18.54
12676;BME280;63820;65.654;21.944;2023-06-14T10:12:16;101858.16;;;38.70;17.63
12676;BME280;63820;65.654;21.944;2023-06-14T10:15:05;101857.25;;;39.39;16.56
12676;BME280;63820;65.654;21.944;2023-06-14T10:17:56;101857.94;;;39.03;16.88
12676;BME280;63820;65.654;21.944;2023-06-14T10:24:04;101859.72;;;39.47;17.71
12676;BME280;63820;65.654;21.944;2023-06-14T10:26:54;101855.22;;;39.96;16.69
12676;BME280;63820;65.654;21.944;2023-06-14T10:30:07;101854.41;;;39.71;15.65
12676;BME280;63820;65.654;21.944;2023-06-14T10:33:12;101857.13;;;39.03;17.24
12676;BME280;63820;65.654;21.944;2023-06-14T10:36:25;101848.34;;;39.69;17.23
12676;BME280;63820;65.654;21.944;2023-06-14T10:39:17;101847.75;;;39.67;15.95
12676;BME280;63820;65.654;21.944;2023-06-14T10:42:02;101851.72;;;40.26;16.44
12676;BME280;63820;65.654;21.944;2023-06-14T10:44:52;101857.28;;;39.33;15.73
12676;BME280;63820;65.654;21.944;2023-06-14T10:47:37;101847.69;;;39.30;16.98
12676;BME280;63820;65.654;21.944;2023-06-14T10:50:27;101851.13;;;40.05;15.10
12676;BME280;63820;65.654;21.944;2023-06-14T10:53:22;101846.13;;;40.39;15.17
12676;BME280;63820;65.654;21.944;2023-06-14T10:56:07;101855.06;;;40.88;14.41
12676;BME280;63820;65.654;21.944;2023-06-14T10:58:52;101850.13;;;41.08;15.07
12676;BME280;63820;65.654;21.944;2023-06-14T11:01:37;101844.44;;;40.38;15.39
12676;BME280;63820;65.654;21.944;2023-06-14T11:04:32;101843.69;;;40.91;15.85
12676;BME280;63820;65.654;21.944;2023-06-14T11:07:48;101834.41;;;40.50;16.01
12676;BME280;63820;65.654;21.944;2023-06-14T11:10:40;101841.69;;;40.68;14.90
12676;BME280;63820;65.654;21.944;2023-06-14T11:13:25;101835.56;;;39.26;16.47
12676;BME280;63820;65.654;21.944;2023-06-14T11:16:14;101828.50;;;38.04;17.60
12676;BME280;63820;65.654;21.944;2023-06-14T11:19:01;101817.81;;;36.38;19.83
12676;BME280;63820;65.654;21.944;2023-06-14T11:21:48;101821.06;;;35.01;18.35
12676;BME280;63820;65.654;21.944;2023-06-14T11:24:33;101808.38;;;34.44;18.48
12676;BME280;63820;65.654;21.944;2023-06-14T11:27:17;101806.66;;;34.07;20.50
12676;BME280;63820;65.654;21.944;2023-06-14T11:30:01;101807.44;;;34.37;20.18
12676;BME280;63820;65.654;21.944;2023-06-14T11:32:47;101798.47;;;33.86;19.58
12676;BME280;63820;65.654;21.944;2023-06-14T11:35:31;101801.00;;;33.35;21.38
12676;BME280;63820;65.654;21.944;2023-06-14T11:38:17;101795.72;;;33.57;22.37
12676;BME280;63820;65.654;21.944;2023-06-14T11:41:02;101799.25;;;33.57;21.03
12676;BME280;63820;65.654;21.944;2023-06-14T11:43:46;101798.78;;;33.01;21.26
12676;BME280;63820;65.654;21.944;2023-06-14T11:46:30;101787.53;;;33.12;21.11
12676;BME280;63820;65.654;21.944;2023-06-14T11:49:13;101795.00;;;32.57;22.94
12676;BME280;63820;65.654;21.944;2023-06-14T11:51:57;101795.59;;;32.05;22.37
12676;BME280;63820;65.654;21.944;2023-06-14T11:54:41;101789.00;;;32.46;22.87
12676;BME280;63820;65.654;21.944;2023-06-14T11:57:26;101784.69;;;32.37;22.82
12676;BME280;63820;65.654;21.944;2023-06-14T12:00:10;101779.56;;;32.73;23.03
12676;BME280;63820;65.654;21.944;2023-06-14T12:02:59;101784.69;;;32.37;23.18
12676;BME280;63820;65.654;21.944;2023-06-14T12:05:43;101789.44;;;32.58;21.98
12676;BME280;63820;65.654;21.944;2023-06-14T12:08:33;101781.56;;;32.48;23.30
12676;BME280;63820;65.654;21.944;2023-06-14T12:11:22;101783.78;;;32.14;21.93
12676;BME280;63820;65.654;21.944;2023-06-14T12:14:08;101788.34;;;32.44;22.06
12676;BME280;63820;65.654;21.944;2023-06-14T12:17:04;101781.56;;;32.48;21.63
12676;BME280;63820;65.654;21.944;2023-06-14T12:19:50;101783.44;;;32.17;22.26
12676;BME280;63820;65.654;21.944;2023-06-14T12:22:34;101778.44;;;32.06;22.92
12676;BME280;63820;65.654;21.944;2023-06-14T12:25:35;101774.50;;;31.77;20.64
12676;BME280;63820;65.654;21.944;2023-06-14T12:28:20;101764.47;;;31.31;21.11
12676;BME280;63820;65.654;21.944;2023-06-14T12:31:04;101764.97;;;31.42;20.55
12676;BME280;63820;65.654;21.944;2023-06-14T12:33:50;101763.75;;;31.53;21.54
12676;BME280;63820;65.654;21.944;2023-06-14T12:36:34;101768.94;;;31.63;21.86
12676;BME280;63820;65.654;21.944;2023-06-14T12:39:24;101773.53;;;30.65;23.39
12676;BME280;63820;65.654;21.944;2023-06-14T12:42:08;101760.97;;;28.85;26.07
12676;BME280;63820;65.654;21.944;2023-06-14T12:44:52;101762.50;;;28.88;28.03
12676;BME280;63820;65.654;21.944;2023-06-14T12:47:36;101754.75;;;28.85;27.44
12676;BME280;63820;65.654;21.944;2023-06-14T12:50:20;101749.34;;;28.49;29.23
12676;BME280;63820;65.654;21.944;2023-06-14T12:53:04;101757.94;;;27.71;27.93
12676;BME280;63820;65.654;21.944;2023-06-14T12:55:48;101750.16;;;26.92;29.28
12676;BME280;63820;65.654;21.944;2023-06-14T12:58:32;101764.06;;;26.17;30.91
12676;BME280;63820;65.654;21.944;2023-06-14T13:01:16;101763.78;;;26.50;30.78
12676;BME280;63820;65.654;21.944;2023-06-14T13:04:00;101756.38;;;26.23;31.48
12676;BME280;63820;65.654;21.944;2023-06-14T13:06:44;101742.56;;;26.68;31.99
12676;BME280;63820;65.654;21.944;2023-06-14T13:09:28;101748.47;;;26.71;32.10
12676;BME280;63820;65.654;21.944;2023-06-14T13:12:12;101751.47;;;26.28;31.52
12676;BME280;63820;65.654;21.944;2023-06-14T13:14:57;101749.69;;;26.38;32.46
12676;BME280;63820;65.654;21.944;2023-06-14T13:17:41;101743.00;;;25.53;32.28
12676;BME280;63820;65.654;21.944;2023-06-14T13:20:27;101743.84;;;25.53;33.05
12676;BME280;63820;65.654;21.944;2023-06-14T13:23:11;101742.72;;;26.17;32.58
12676;BME280;63820;65.654;21.944;2023-06-14T13:25:55;101745.31;;;25.88;33.25
12676;BME280;63820;65.654;21.944;2023-06-14T13:28:39;101750.34;;;25.60;32.26
12676;BME280;63820;65.654;21.944;2023-06-14T13:31:23;101744.25;;;25.69;33.12
12676;BME280;63820;65.654;21.944;2023-06-14T13:34:07;101737.69;;;25.53;33.20
12676;BME280;63820;65.654;21.944;2023-06-14T13:36:51;101717.25;;;25.63;33.04
12676;BME280;63820;65.654;21.944;2023-06-14T13:39:35;101727.84;;;25.53;33.44
12676;BME280;63820;65.654;21.944;2023-06-14T13:42:21;101734.03;;;25.54;33.14
12676;BME280;63820;65.654;21.944;2023-06-14T13:45:05;101729.31;;;25.16;33.23
12676;BME280;63820;65.654;21.944;2023-06-14T13:47:50;101728.91;;;24.99;34.89
12676;BME280;63820;65.654;21.944;2023-06-14T13:50:35;101730.53;;;24.91;36.03
12676;BME280;63820;65.654;21.944;2023-06-14T13:53:19;101722.59;;;24.80;36.13
12676;BME280;63820;65.654;21.944;2023-06-14T13:56:03;101717.88;;;24.40;36.95
12676;BME280;63820;65.654;21.944;2023-06-14T13:58:48;101728.34;;;24.64;36.10
12676;BME280;63820;65.654;21.944;2023-06-14T14:01:32;101723.25;;;24.29;35.99
12676;BME280;63820;65.654;21.944;2023-06-14T14:04:17;101726.53;;;24.64;34.93
12676;BME280;63820;65.654;21.944;2023-06-14T14:07:02;101722.75;;;24.99;34.92
12676;BME280;63820;65.654;21.944;2023-06-14T14:09:47;101722.16;;;24.95;34.11
12676;BME280;63820;65.654;21.944;2023-06-14T14:12:31;101731.84;;;24.96;33.71
12676;BME280;63820;65.654;21.944;2023-06-14T14:15:15;101725.38;;;24.46;33.54
12676;BME280;63820;65.654;21.944;2023-06-14T14:17:59;101729.44;;;23.85;35.06
12676;BME280;63820;65.654;21.944;2023-06-14T14:20:43;101731.47;;;24.03;34.49
12676;BME280;63820;65.654;21.944;2023-06-14T14:23:27;101728.00;;;23.92;34.70
12676;BME280;63820;65.654;21.944;2023-06-14T14:26:11;101727.47;;;24.09;35.31